sensor_id;sensor_type;location;lat;lon;timestamp;temperature;humidity
360;DHT22;168;48.872;9.226;2023-04-03T00:02:24;5.80;90.40
360;DHT22;168;48.872;9.226;2023-04-03T00:04:52;5.80;90.90
360;DHT22;168;48.872;9.226;2023-04-03T00:07:21;5.80;91.30
360;DHT22;168;48.872;9.226;2023-04-03T00:09:48;5.70;91.10
360;DHT22;168;48.872;9.226;2023-04-03T00:12:16;5.70;91.00
360;DHT22;168;48.872;9.226;2023-04-03T00:14:43;5.70;90.80
360;DHT22;168;48.872;9.226;2023-04-03T00:17:10;5.60;91.60
360;DHT22;168;48.872;9.226;2023-04-03T00:19:38;5.50;92.40
360;DHT22;168;48.872;9.226;2023-04-03T00:22:06;5.60;92.00
360;DHT22;168;48.872;9.226;2023-04-03T00:24:35;5.70;91.00
360;DHT22;168;48.872;9.226;2023-04-03T00:27:02;5.60;91.60
360;DHT22;168;48.872;9.226;2023-04-03T00:29:30;5.60;92.70
360;DHT22;168;48.872;9.226;2023-04-03T00:31:57;5.60;92.20
360;DHT22;168;48.872;9.226;2023-04-03T00:34:25;5.60;91.70
360;DHT22;168;48.872;9.226;2023-04-03T00:36:52;5.60;92.00
360;DHT22;168;48.872;9.226;2023-04-03T00:39:20;5.60;92.20
360;DHT22;168;48.872;9.226;2023-04-03T00:41:49;5.60;91.70
360;DHT22;168;48.872;9.226;2023-04-03T00:44:21;5.60;91.70
360;DHT22;168;48.872;9.226;2023-04-03T00:46:48;5.50;92.30
360;DHT22;168;48.872;9.226;2023-04-03T00:49:16;5.50;92.50
360;DHT22;168;48.872;9.226;2023-04-03T00:51:44;5.50;91.80
360;DHT22;168;48.872;9.226;2023-04-03T00:54:12;5.50;92.20
360;DHT22;168;48.872;9.226;2023-04-03T00:56:40;5.50;92.90
360;DHT22;168;48.872;9.226;2023-04-03T00:59:11;5.40;93.40
360;DHT22;168;48.872;9.226;2023-04-03T01:01:42;5.50;93.20
360;DHT22;168;48.872;9.226;2023-04-03T01:04:27;5.60;92.70
360;DHT22;168;48.872;9.226;2023-04-03T01:06:55;5.60;92.40
360;DHT22;168;48.872;9.226;2023-04-03T01:09:23;5.50;92.20
360;DHT22;168;48.872;9.226;2023-04-03T01:11:51;5.40;92.80
360;DHT22;168;48.872;9.226;2023-04-03T01:14:20;5.60;92.30
360;DHT22;168;48.872;9.226;2023-04-03T01:16:52;5.60;91.60
360;DHT22;168;48.872;9.226;2023-04-03T01:19:22;5.50;92.20
360;DHT22;168;48.872;9.226;2023-04-03T01:22:09;5.50;92.40
360;DHT22;168;48.872;9.226;2023-04-03T01:24:40;5.40;92.10
360;DHT22;168;48.872;9.226;2023-04-03T01:27:10;5.40;92.30
360;DHT22;168;48.872;9.226;2023-04-03T01:29:40;5.40;92.20
360;DHT22;168;48.872;9.226;2023-04-03T01:32:10;5.40;92.00
360;DHT22;168;48.872;9.226;2023-04-03T01:34:38;5.30;91.80
360;DHT22;168;48.872;9.226;2023-04-03T01:37:05;5.30;92.50
360;DHT22;168;48.872;9.226;2023-04-03T01:39:33;5.20;93.20
360;DHT22;168;48.872;9.226;2023-04-03T01:42:01;5.10;94.10
360;DHT22;168;48.872;9.226;2023-04-03T01:44:29;5.10;94.40
360;DHT22;168;48.872;9.226;2023-04-03T01:46:57;5.10;94.70
360;DHT22;168;48.872;9.226;2023-04-03T01:49:25;5.10;95.10
360;DHT22;168;48.872;9.226;2023-04-03T01:51:53;5.10;94.70
360;DHT22;168;48.872;9.226;2023-04-03T01:54:21;5.20;94.20
360;DHT22;168;48.872;9.226;2023-04-03T01:56:48;5.20;94.10
360;DHT22;168;48.872;9.226;2023-04-03T01:59:15;5.20;93.80
360;DHT22;168;48.872;9.226;2023-04-03T02:01:44;5.30;93.00
360;DHT22;168;48.872;9.226;2023-04-03T02:04:12;5.30;93.00
360;DHT22;168;48.872;9.226;2023-04-03T02:06:41;5.30;92.90
360;DHT22;168;48.872;9.226;2023-04-03T02:09:09;5.30;92.10
360;DHT22;168;48.872;9.226;2023-04-03T02:11:36;5.30;91.50
360;DHT22;168;48.872;9.226;2023-04-03T02:14:03;5.30;91.50
360;DHT22;168;48.872;9.226;2023-04-03T02:16:31;5.40;91.30
360;DHT22;168;48.872;9.226;2023-04-03T02:18:58;5.40;91.40
360;DHT22;168;48.872;9.226;2023-04-03T02:21:25;5.40;90.40
360;DHT22;168;48.872;9.226;2023-04-03T02:23:55;5.50;89.40
360;DHT22;168;48.872;9.226;2023-04-03T02:26:22;5.50;88.20
360;DHT22;168;48.872;9.226;2023-04-03T02:28:49;5.40;88.10
360;DHT22;168;48.872;9.226;2023-04-03T02:31:17;5.40;87.10
360;DHT22;168;48.872;9.226;2023-04-03T02:33:45;5.40;86.70
360;DHT22;168;48.872;9.226;2023-04-03T02:36:12;5.30;86.80
360;DHT22;168;48.872;9.226;2023-04-03T02:38:40;5.30;86.50
360;DHT22;168;48.872;9.226;2023-04-03T02:41:11;5.20;86.90
360;DHT22;168;48.872;9.226;2023-04-03T02:43:39;5.20;86.50
360;DHT22;168;48.872;9.226;2023-04-03T02:46:06;5.20;86.90
360;DHT22;168;48.872;9.226;2023-04-03T02:48:34;5.20;86.90
360;DHT22;168;48.872;9.226;2023-04-03T02:51:02;5.10;87.00
360;DHT22;168;48.872;9.226;2023-04-03T02:53:30;5.10;86.80
360;DHT22;168;48.872;9.226;2023-04-03T02:55:57;5.00;87.40
360;DHT22;168;48.872;9.226;2023-04-03T02:58:26;5.00;87.80
360;DHT22;168;48.872;9.226;2023-04-03T03:00:53;5.00;88.10
360;DHT22;168;48.872;9.226;2023-04-03T03:03:21;5.00;88.20
360;DHT22;168;48.872;9.226;2023-04-03T03:05:48;4.90;88.50
360;DHT22;168;48.872;9.226;2023-04-03T03:08:16;4.90;88.80
360;DHT22;168;48.872;9.226;2023-04-03T03:10:46;4.90;89.00
360;DHT22;168;48.872;9.226;2023-04-03T03:13:13;4.90;87.90
360;DHT22;168;48.872;9.226;2023-04-03T03:15:42;4.90;88.90
360;DHT22;168;48.872;9.226;2023-04-03T03:18:10;4.90;88.70
360;DHT22;168;48.872;9.226;2023-04-03T03:20:38;4.80;89.40
360;DHT22;168;48.872;9.226;2023-04-03T03:23:06;4.90;88.80
360;DHT22;168;48.872;9.226;2023-04-03T03:25:33;5.00;89.00
360;DHT22;168;48.872;9.226;2023-04-03T03:28:05;5.10;88.60
360;DHT22;168;48.872;9.226;2023-04-03T03:30:32;5.10;88.50
360;DHT22;168;48.872;9.226;2023-04-03T03:33:02;5.10;88.90
360;DHT22;168;48.872;9.226;2023-04-03T03:35:29;5.10;89.10
360;DHT22;168;48.872;9.226;2023-04-03T03:37:57;5.10;89.80
360;DHT22;168;48.872;9.226;2023-04-03T03:40:24;5.10;89.00
360;DHT22;168;48.872;9.226;2023-04-03T03:42:52;5.10;88.90
360;DHT22;168;48.872;9.226;2023-04-03T03:45:19;5.10;89.10
360;DHT22;168;48.872;9.226;2023-04-03T03:47:47;5.20;88.80
360;DHT22;168;48.872;9.226;2023-04-03T03:50:16;5.20;87.80
360;DHT22;168;48.872;9.226;2023-04-03T03:52:44;5.20;87.80
360;DHT22;168;48.872;9.226;2023-04-03T03:55:12;5.20;88.20
360;DHT22;168;48.872;9.226;2023-04-03T03:57:40;5.30;88.20
360;DHT22;168;48.872;9.226;2023-04-03T04:00:08;5.30;88.40
360;DHT22;168;48.872;9.226;2023-04-03T04:02:35;5.40;86.70
360;DHT22;168;48.872;9.226;2023-04-03T04:05:04;5.40;86.30
360;DHT22;168;48.872;9.226;2023-04-03T04:07:33;5.40;86.30
360;DHT22;168;48.872;9.226;2023-04-03T04:10:01;5.50;85.90
360;DHT22;168;48.872;9.226;2023-04-03T04:12:28;5.60;85.30
360;DHT22;168;48.872;9.226;2023-04-03T04:14:55;5.60;85.20
360;DHT22;168;48.872;9.226;2023-04-03T04:17:23;5.60;85.70
360;DHT22;168;48.872;9.226;2023-04-03T04:19:50;5.60;85.90
360;DHT22;168;48.872;9.226;2023-04-03T04:22:18;5.60;85.80
360;DHT22;168;48.872;9.226;2023-04-03T04:24:46;5.60;85.60
360;DHT22;168;48.872;9.226;2023-04-03T04:27:14;5.70;85.20
360;DHT22;168;48.872;9.226;2023-04-03T04:29:42;5.60;85.00
360;DHT22;168;48.872;9.226;2023-04-03T04:32:10;5.70;82.90
360;DHT22;168;48.872;9.226;2023-04-03T04:34:37;5.60;82.20
360;DHT22;168;48.872;9.226;2023-04-03T04:37:05;5.60;81.60
360;DHT22;168;48.872;9.226;2023-04-03T04:39:32;5.60;82.40
360;DHT22;168;48.872;9.226;2023-04-03T04:42:02;5.60;83.30
360;DHT22;168;48.872;9.226;2023-04-03T04:44:29;5.60;83.60
360;DHT22;168;48.872;9.226;2023-04-03T04:46:57;5.60;84.20
360;DHT22;168;48.872;9.226;2023-04-03T04:49:24;5.60;84.90
360;DHT22;168;48.872;9.226;2023-04-03T04:51:52;5.60;85.40
360;DHT22;168;48.872;9.226;2023-04-03T04:54:19;5.60;84.70
360;DHT22;168;48.872;9.226;2023-04-03T04:56:47;5.60;85.20
360;DHT22;168;48.872;9.226;2023-04-03T04:59:16;5.70;85.10
360;DHT22;168;48.872;9.226;2023-04-03T05:01:43;5.80;84.10
360;DHT22;168;48.872;9.226;2023-04-03T05:04:11;5.80;84.00
360;DHT22;168;48.872;9.226;2023-04-03T05:06:39;5.80;84.60
360;DHT22;168;48.872;9.226;2023-04-03T05:09:07;5.70;84.10
360;DHT22;168;48.872;9.226;2023-04-03T05:11:36;5.60;84.00
360;DHT22;168;48.872;9.226;2023-04-03T05:14:03;5.50;84.10
360;DHT22;168;48.872;9.226;2023-04-03T05:16:34;5.40;85.40
360;DHT22;168;48.872;9.226;2023-04-03T05:19:01;5.30;85.50
360;DHT22;168;48.872;9.226;2023-04-03T05:21:29;5.20;84.90
360;DHT22;168;48.872;9.226;2023-04-03T05:23:58;5.10;85.10
360;DHT22;168;48.872;9.226;2023-04-03T05:26:28;5.00;85.10
360;DHT22;168;48.872;9.226;2023-04-03T05:28:56;5.00;86.10
360;DHT22;168;48.872;9.226;2023-04-03T05:31:23;4.90;86.70
360;DHT22;168;48.872;9.226;2023-04-03T05:33:52;4.90;87.10
360;DHT22;168;48.872;9.226;2023-04-03T05:36:19;4.90;87.00
360;DHT22;168;48.872;9.226;2023-04-03T05:38:47;4.90;87.30
360;DHT22;168;48.872;9.226;2023-04-03T05:41:15;4.90;87.60
360;DHT22;168;48.872;9.226;2023-04-03T05:43:43;4.80;88.00
360;DHT22;168;48.872;9.226;2023-04-03T05:46:14;4.80;88.20
360;DHT22;168;48.872;9.226;2023-04-03T05:48:42;4.90;88.30
360;DHT22;168;48.872;9.226;2023-04-03T05:51:15;5.00;87.80
360;DHT22;168;48.872;9.226;2023-04-03T05:53:44;5.10;87.30
360;DHT22;168;48.872;9.226;2023-04-03T05:56:11;5.20;86.70
360;DHT22;168;48.872;9.226;2023-04-03T05:58:39;5.10;87.20
360;DHT22;168;48.872;9.226;2023-04-03T06:01:07;5.30;86.70
360;DHT22;168;48.872;9.226;2023-04-03T06:03:34;5.40;86.10
360;DHT22;168;48.872;9.226;2023-04-03T06:06:03;5.50;85.20
360;DHT22;168;48.872;9.226;2023-04-03T06:08:32;5.50;85.30
360;DHT22;168;48.872;9.226;2023-04-03T06:11:01;5.50;85.00
360;DHT22;168;48.872;9.226;2023-04-03T06:13:29;5.60;84.50
360;DHT22;168;48.872;9.226;2023-04-03T06:15:56;5.60;85.60
360;DHT22;168;48.872;9.226;2023-04-03T06:18:24;5.70;85.10
360;DHT22;168;48.872;9.226;2023-04-03T06:20:52;5.70;85.20
360;DHT22;168;48.872;9.226;2023-04-03T06:23:19;5.90;84.20
360;DHT22;168;48.872;9.226;2023-04-03T06:25:48;6.00;84.60
360;DHT22;168;48.872;9.226;2023-04-03T06:28:15;6.00;83.60
360;DHT22;168;48.872;9.226;2023-04-03T06:30:45;6.10;83.80
360;DHT22;168;48.872;9.226;2023-04-03T06:33:13;6.00;84.10
360;DHT22;168;48.872;9.226;2023-04-03T06:35:40;6.00;84.10
360;DHT22;168;48.872;9.226;2023-04-03T06:38:08;6.00;84.80
360;DHT22;168;48.872;9.226;2023-04-03T06:40:36;6.10;85.40
360;DHT22;168;48.872;9.226;2023-04-03T06:43:05;6.10;85.30
360;DHT22;168;48.872;9.226;2023-04-03T06:45:33;6.10;85.80
360;DHT22;168;48.872;9.226;2023-04-03T06:48:00;6.30;85.50
360;DHT22;168;48.872;9.226;2023-04-03T06:50:28;6.40;85.40
360;DHT22;168;48.872;9.226;2023-04-03T06:52:55;6.50;84.60
360;DHT22;168;48.872;9.226;2023-04-03T06:55:22;6.60;84.30
360;DHT22;168;48.872;9.226;2023-04-03T06:57:50;6.80;83.40
360;DHT22;168;48.872;9.226;2023-04-03T07:00:20;6.80;82.90
360;DHT22;168;48.872;9.226;2023-04-03T07:02:47;6.80;82.90
360;DHT22;168;48.872;9.226;2023-04-03T07:05:15;6.80;83.40
360;DHT22;168;48.872;9.226;2023-04-03T07:07:43;6.90;83.00
360;DHT22;168;48.872;9.226;2023-04-03T07:10:11;7.00;82.50
360;DHT22;168;48.872;9.226;2023-04-03T07:12:38;7.00;82.00
360;DHT22;168;48.872;9.226;2023-04-03T07:15:07;7.00;81.90
360;DHT22;168;48.872;9.226;2023-04-03T07:17:36;7.10;82.10
360;DHT22;168;48.872;9.226;2023-04-03T07:20:04;7.10;82.20
360;DHT22;168;48.872;9.226;2023-04-03T07:22:33;7.20;82.50
360;DHT22;168;48.872;9.226;2023-04-03T07:25:01;7.30;82.10
360;DHT22;168;48.872;9.226;2023-04-03T07:27:28;7.30;81.70
360;DHT22;168;48.872;9.226;2023-04-03T07:29:56;7.50;80.70
360;DHT22;168;48.872;9.226;2023-04-03T07:32:24;7.50;81.00
360;DHT22;168;48.872;9.226;2023-04-03T07:34:53;7.50;81.30
360;DHT22;168;48.872;9.226;2023-04-03T07:37:21;7.40;81.90
360;DHT22;168;48.872;9.226;2023-04-03T07:39:48;7.50;81.20
360;DHT22;168;48.872;9.226;2023-04-03T07:42:15;7.60;81.10
360;DHT22;168;48.872;9.226;2023-04-03T07:44:46;7.80;80.60
360;DHT22;168;48.872;9.226;2023-04-03T07:47:13;7.90;81.30
360;DHT22;168;48.872;9.226;2023-04-03T07:49:42;8.10;79.60
360;DHT22;168;48.872;9.226;2023-04-03T07:52:11;8.10;79.50
360;DHT22;168;48.872;9.226;2023-04-03T07:54:39;8.20;79.40
360;DHT22;168;48.872;9.226;2023-04-03T07:57:06;8.20;78.50
360;DHT22;168;48.872;9.226;2023-04-03T07:59:34;8.20;78.10
360;DHT22;168;48.872;9.226;2023-04-03T08:02:01;8.20;78.60
360;DHT22;168;48.872;9.226;2023-04-03T08:04:30;8.20;78.60
360;DHT22;168;48.872;9.226;2023-04-03T08:06:58;8.00;78.90
360;DHT22;168;48.872;9.226;2023-04-03T08:09:27;8.00;79.70
360;DHT22;168;48.872;9.226;2023-04-03T08:11:55;7.90;80.70
360;DHT22;168;48.872;9.226;2023-04-03T08:14:22;7.90;79.90
360;DHT22;168;48.872;9.226;2023-04-03T08:16:50;8.10;78.50
360;DHT22;168;48.872;9.226;2023-04-03T08:19:18;8.20;78.70
360;DHT22;168;48.872;9.226;2023-04-03T08:21:45;8.20;78.80
360;DHT22;168;48.872;9.226;2023-04-03T08:24:13;8.30;77.90
360;DHT22;168;48.872;9.226;2023-04-03T08:26:41;8.30;78.10
360;DHT22;168;48.872;9.226;2023-04-03T08:29:09;8.30;77.90
360;DHT22;168;48.872;9.226;2023-04-03T08:31:37;8.20;79.00
360;DHT22;168;48.872;9.226;2023-04-03T08:34:05;8.30;78.90
360;DHT22;168;48.872;9.226;2023-04-03T08:36:32;8.50;78.30
360;DHT22;168;48.872;9.226;2023-04-03T08:39:00;8.60;77.30
360;DHT22;168;48.872;9.226;2023-04-03T08:41:31;8.70;77.40
360;DHT22;168;48.872;9.226;2023-04-03T08:44:11;8.80;77.20
360;DHT22;168;48.872;9.226;2023-04-03T08:46:52;9.00;76.30
360;DHT22;168;48.872;9.226;2023-04-03T08:49:26;9.00;75.10
360;DHT22;168;48.872;9.226;2023-04-03T08:51:56;9.10;75.40
360;DHT22;168;48.872;9.226;2023-04-03T08:54:28;9.10;74.90
360;DHT22;168;48.872;9.226;2023-04-03T08:56:58;9.20;76.10
360;DHT22;168;48.872;9.226;2023-04-03T08:59:32;9.40;75.00
360;DHT22;168;48.872;9.226;2023-04-03T09:02:04;9.60;73.90
360;DHT22;168;48.872;9.226;2023-04-03T09:04:32;9.60;73.00
360;DHT22;168;48.872;9.226;2023-04-03T09:07:06;9.40;72.40
360;DHT22;168;48.872;9.226;2023-04-03T09:09:38;9.30;73.80
360;DHT22;168;48.872;9.226;2023-04-03T09:12:15;9.30;72.80
360;DHT22;168;48.872;9.226;2023-04-03T09:14:50;9.20;73.80
360;DHT22;168;48.872;9.226;2023-04-03T09:17:27;9.10;72.70
360;DHT22;168;48.872;9.226;2023-04-03T09:20:04;8.90;74.00
360;DHT22;168;48.872;9.226;2023-04-03T09:22:42;8.80;74.00
360;DHT22;168;48.872;9.226;2023-04-03T09:25:13;8.80;74.30
360;DHT22;168;48.872;9.226;2023-04-03T09:27:42;8.90;75.30
360;DHT22;168;48.872;9.226;2023-04-03T09:30:15;9.10;73.70
360;DHT22;168;48.872;9.226;2023-04-03T09:32:45;9.10;74.00
360;DHT22;168;48.872;9.226;2023-04-03T09:35:22;9.20;73.50
360;DHT22;168;48.872;9.226;2023-04-03T09:37:51;9.30;72.80
360;DHT22;168;48.872;9.226;2023-04-03T09:40:31;9.40;73.20
360;DHT22;168;48.872;9.226;2023-04-03T09:43:01;9.60;71.60
360;DHT22;168;48.872;9.226;2023-04-03T09:45:32;9.70;71.00
360;DHT22;168;48.872;9.226;2023-04-03T09:48:08;9.70;71.80
360;DHT22;168;48.872;9.226;2023-04-03T09:50:36;9.80;69.40
360;DHT22;168;48.872;9.226;2023-04-03T09:53:06;9.80;69.10
360;DHT22;168;48.872;9.226;2023-04-03T09:55:42;10.10;69.20
360;DHT22;168;48.872;9.226;2023-04-03T09:58:25;10.20;68.10
360;DHT22;168;48.872;9.226;2023-04-03T10:00:57;10.20;68.00
360;DHT22;168;48.872;9.226;2023-04-03T10:03:29;10.20;68.40
360;DHT22;168;48.872;9.226;2023-04-03T10:05:58;10.30;67.50
360;DHT22;168;48.872;9.226;2023-04-03T10:08:29;10.30;67.60
360;DHT22;168;48.872;9.226;2023-04-03T10:11:12;10.30;67.80
360;DHT22;168;48.872;9.226;2023-04-03T10:13:50;10.30;66.60
360;DHT22;168;48.872;9.226;2023-04-03T10:16:23;10.20;66.90
360;DHT22;168;48.872;9.226;2023-04-03T10:19:06;10.20;67.00
360;DHT22;168;48.872;9.226;2023-04-03T10:21:44;10.10;67.00
360;DHT22;168;48.872;9.226;2023-04-03T10:24:17;10.10;66.80
360;DHT22;168;48.872;9.226;2023-04-03T10:26:52;10.10;67.70
360;DHT22;168;48.872;9.226;2023-04-03T10:29:32;10.20;67.00
360;DHT22;168;48.872;9.226;2023-04-03T10:35:08;10.10;65.90
360;DHT22;168;48.872;9.226;2023-04-03T10:37:52;10.20;63.90
360;DHT22;168;48.872;9.226;2023-04-03T10:40:28;10.30;63.80
360;DHT22;168;48.872;9.226;2023-04-03T10:43:06;10.40;64.60
360;DHT22;168;48.872;9.226;2023-04-03T10:45:49;10.50;64.10
360;DHT22;168;48.872;9.226;2023-04-03T10:48:30;10.50;64.40
360;DHT22;168;48.872;9.226;2023-04-03T10:51:05;10.10;63.80
360;DHT22;168;48.872;9.226;2023-04-03T10:53:39;9.90;65.20
360;DHT22;168;48.872;9.226;2023-04-03T10:56:14;9.90;64.60
360;DHT22;168;48.872;9.226;2023-04-03T10:58:44;9.90;64.80
360;DHT22;168;48.872;9.226;2023-04-03T11:01:18;10.10;64.80
360;DHT22;168;48.872;9.226;2023-04-03T11:03:52;10.30;63.00
360;DHT22;168;48.872;9.226;2023-04-03T11:06:24;10.40;62.80
360;DHT22;168;48.872;9.226;2023-04-03T11:08:55;10.40;62.20
360;DHT22;168;48.872;9.226;2023-04-03T11:11:32;10.20;63.10
360;DHT22;168;48.872;9.226;2023-04-03T11:14:03;10.00;63.60
360;DHT22;168;48.872;9.226;2023-04-03T11:16:36;10.00;63.90
360;DHT22;168;48.872;9.226;2023-04-03T11:19:13;9.90;63.10
360;DHT22;168;48.872;9.226;2023-04-03T11:21:52;9.80;64.50
360;DHT22;168;48.872;9.226;2023-04-03T11:24:24;9.80;65.20
360;DHT22;168;48.872;9.226;2023-04-03T11:26:53;9.90;66.50
360;DHT22;168;48.872;9.226;2023-04-03T11:29:34;10.00;66.00
360;DHT22;168;48.872;9.226;2023-04-03T11:32:11;10.10;65.80
360;DHT22;168;48.872;9.226;2023-04-03T11:34:47;10.20;64.70
360;DHT22;168;48.872;9.226;2023-04-03T11:37:23;10.20;63.30
360;DHT22;168;48.872;9.226;2023-04-03T11:39:56;10.10;64.30
360;DHT22;168;48.872;9.226;2023-04-03T11:42:32;10.20;64.00
360;DHT22;168;48.872;9.226;2023-04-03T11:45:26;10.10;63.90
360;DHT22;168;48.872;9.226;2023-04-03T11:47:57;10.10;63.60
360;DHT22;168;48.872;9.226;2023-04-03T11:50:43;10.20;63.60
360;DHT22;168;48.872;9.226;2023-04-03T11:53:29;10.30;63.70
360;DHT22;168;48.872;9.226;2023-04-03T11:59:19;10.40;62.20
360;DHT22;168;48.872;9.226;2023-04-03T12:01:53;10.20;61.40
360;DHT22;168;48.872;9.226;2023-04-03T12:04:22;10.00;61.70
360;DHT22;168;48.872;9.226;2023-04-03T12:10:17;9.90;63.80
360;DHT22;168;48.872;9.226;2023-04-03T12:12:58;10.00;62.60
360;DHT22;168;48.872;9.226;2023-04-03T12:15:52;10.10;61.90
360;DHT22;168;48.872;9.226;2023-04-03T12:18:55;10.00;62.00
360;DHT22;168;48.872;9.226;2023-04-03T12:24:34;10.20;62.00
360;DHT22;168;48.872;9.226;2023-04-03T12:27:08;10.20;61.30
360;DHT22;168;48.872;9.226;2023-04-03T12:29:39;10.20;60.50
360;DHT22;168;48.872;9.226;2023-04-03T12:32:22;10.20;61.10
360;DHT22;168;48.872;9.226;2023-04-03T12:35:21;10.30;61.10
360;DHT22;168;48.872;9.226;2023-04-03T12:38:19;10.30;60.60
360;DHT22;168;48.872;9.226;2023-04-03T12:40:52;10.30;61.30
360;DHT22;168;48.872;9.226;2023-04-03T12:43:34;10.40;61.40
360;DHT22;168;48.872;9.226;2023-04-03T12:46:07;10.70;60.10
360;DHT22;168;48.872;9.226;2023-04-03T12:48:39;10.80;59.70
360;DHT22;168;48.872;9.226;2023-04-03T12:51:30;10.90;59.70
360;DHT22;168;48.872;9.226;2023-04-03T12:54:04;10.80;59.60
360;DHT22;168;48.872;9.226;2023-04-03T12:56:40;10.70;60.00
360;DHT22;168;48.872;9.226;2023-04-03T12:59:15;10.70;60.80
360;DHT22;168;48.872;9.226;2023-04-03T13:01:44;10.70;60.80
360;DHT22;168;48.872;9.226;2023-04-03T13:04:21;10.80;60.80
360;DHT22;168;48.872;9.226;2023-04-03T13:06:49;10.80;60.70
360;DHT22;168;48.872;9.226;2023-04-03T13:09:20;10.80;60.10
360;DHT22;168;48.872;9.226;2023-04-03T13:11:52;10.60;60.60
360;DHT22;168;48.872;9.226;2023-04-03T13:14:24;10.60;61.00
360;DHT22;168;48.872;9.226;2023-04-03T13:16:54;10.60;61.70
360;DHT22;168;48.872;9.226;2023-04-03T13:19:23;10.60;61.60
360;DHT22;168;48.872;9.226;2023-04-03T13:21:55;10.70;60.00
360;DHT22;168;48.872;9.226;2023-04-03T13:24:28;10.80;60.00
360;DHT22;168;48.872;9.226;2023-04-03T13:26:57;11.00;58.80
360;DHT22;168;48.872;9.226;2023-04-03T13:29:28;11.10;57.60
360;DHT22;168;48.872;9.226;2023-04-03T13:31:57;11.10;58.30
360;DHT22;168;48.872;9.226;2023-04-03T13:34:26;11.20;57.60
360;DHT22;168;48.872;9.226;2023-04-03T13:36:56;11.20;58.10
360;DHT22;168;48.872;9.226;2023-04-03T13:39:26;11.30;58.10
360;DHT22;168;48.872;9.226;2023-04-03T13:41:57;11.50;58.10
360;DHT22;168;48.872;9.226;2023-04-03T13:44:31;11.70;57.90
360;DHT22;168;48.872;9.226;2023-04-03T13:47:00;11.90;56.10
360;DHT22;168;48.872;9.226;2023-04-03T13:49:33;11.90;57.20
360;DHT22;168;48.872;9.226;2023-04-03T13:52:18;11.90;56.70
360;DHT22;168;48.872;9.226;2023-04-03T13:54:52;11.90;55.60
360;DHT22;168;48.872;9.226;2023-04-03T13:57:28;11.60;55.50
360;DHT22;168;48.872;9.226;2023-04-03T13:59:55;11.50;56.40
360;DHT22;168;48.872;9.226;2023-04-03T14:02:31;11.40;56.30
360;DHT22;168;48.872;9.226;2023-04-03T14:05:00;11.40;57.80
360;DHT22;168;48.872;9.226;2023-04-03T14:07:30;11.50;56.60
360;DHT22;168;48.872;9.226;2023-04-03T14:09:58;11.60;56.50
360;DHT22;168;48.872;9.226;2023-04-03T14:12:31;11.70;57.20
360;DHT22;168;48.872;9.226;2023-04-03T14:15:00;11.70;56.20
360;DHT22;168;48.872;9.226;2023-04-03T14:17:29;11.70;55.00
360;DHT22;168;48.872;9.226;2023-04-03T14:19:58;11.60;55.50
360;DHT22;168;48.872;9.226;2023-04-03T14:22:29;11.70;54.30
360;DHT22;168;48.872;9.226;2023-04-03T14:24:57;11.80;55.40
360;DHT22;168;48.872;9.226;2023-04-03T14:27:29;12.00;54.40
360;DHT22;168;48.872;9.226;2023-04-03T14:29:58;12.00;54.80
360;DHT22;168;48.872;9.226;2023-04-03T14:32:29;12.00;54.90
360;DHT22;168;48.872;9.226;2023-04-03T14:34:56;12.00;55.00
360;DHT22;168;48.872;9.226;2023-04-03T14:37:26;11.90;55.10
360;DHT22;168;48.872;9.226;2023-04-03T14:39:58;11.90;54.80
360;DHT22;168;48.872;9.226;2023-04-03T14:42:29;11.90;55.20
360;DHT22;168;48.872;9.226;2023-04-03T14:44:58;11.80;55.20
360;DHT22;168;48.872;9.226;2023-04-03T14:47:27;11.90;54.70
360;DHT22;168;48.872;9.226;2023-04-03T14:49:55;11.90;54.70
360;DHT22;168;48.872;9.226;2023-04-03T14:52:24;11.90;54.30
360;DHT22;168;48.872;9.226;2023-04-03T14:54:53;11.60;54.70
360;DHT22;168;48.872;9.226;2023-04-03T14:57:25;11.50;55.10
360;DHT22;168;48.872;9.226;2023-04-03T14:59:55;11.40;55.00
360;DHT22;168;48.872;9.226;2023-04-03T15:02:28;11.40;55.30
360;DHT22;168;48.872;9.226;2023-04-03T15:04:57;11.50;54.10
360;DHT22;168;48.872;9.226;2023-04-03T15:07:27;11.60;54.70
360;DHT22;168;48.872;9.226;2023-04-03T15:09:55;11.90;54.90
360;DHT22;168;48.872;9.226;2023-04-03T15:12:25;12.00;54.60
360;DHT22;168;48.872;9.226;2023-04-03T15:14:52;12.20;54.70
360;DHT22;168;48.872;9.226;2023-04-03T15:17:22;12.20;54.50
360;DHT22;168;48.872;9.226;2023-04-03T15:19:50;12.10;55.20
360;DHT22;168;48.872;9.226;2023-04-03T15:22:19;12.10;55.40
360;DHT22;168;48.872;9.226;2023-04-03T15:24:47;11.90;54.70
360;DHT22;168;48.872;9.226;2023-04-03T15:27:15;11.70;54.00
360;DHT22;168;48.872;9.226;2023-04-03T15:29:43;11.40;55.50
360;DHT22;168;48.872;9.226;2023-04-03T15:32:18;11.10;55.00
360;DHT22;168;48.872;9.226;2023-04-03T15:34:47;11.10;55.00
360;DHT22;168;48.872;9.226;2023-04-03T15:37:15;11.20;56.60
360;DHT22;168;48.872;9.226;2023-04-03T15:39:46;11.50;55.60
360;DHT22;168;48.872;9.226;2023-04-03T15:42:14;12.00;53.80
360;DHT22;168;48.872;9.226;2023-04-03T15:44:42;12.50;52.80
360;DHT22;168;48.872;9.226;2023-04-03T15:47:10;13.10;51.60
360;DHT22;168;48.872;9.226;2023-04-03T15:49:38;13.60;51.60
360;DHT22;168;48.872;9.226;2023-04-03T15:52:07;13.70;50.80
360;DHT22;168;48.872;9.226;2023-04-03T15:54:35;13.80;50.90
360;DHT22;168;48.872;9.226;2023-04-03T15:57:02;13.80;50.10
360;DHT22;168;48.872;9.226;2023-04-03T15:59:31;13.60;51.10
360;DHT22;168;48.872;9.226;2023-04-03T16:01:58;13.30;52.00
360;DHT22;168;48.872;9.226;2023-04-03T16:04:27;12.80;51.60
360;DHT22;168;48.872;9.226;2023-04-03T16:06:55;12.50;52.50
360;DHT22;168;48.872;9.226;2023-04-03T16:09:24;12.10;53.70
360;DHT22;168;48.872;9.226;2023-04-03T16:11:56;11.80;53.60
360;DHT22;168;48.872;9.226;2023-04-03T16:14:24;11.50;54.30
360;DHT22;168;48.872;9.226;2023-04-03T16:16:54;11.30;54.10
360;DHT22;168;48.872;9.226;2023-04-03T16:19:24;11.40;54.70
360;DHT22;168;48.872;9.226;2023-04-03T16:21:53;11.80;53.90
360;DHT22;168;48.872;9.226;2023-04-03T16:24:21;12.20;53.40
360;DHT22;168;48.872;9.226;2023-04-03T16:26:50;12.70;53.10
360;DHT22;168;48.872;9.226;2023-04-03T16:29:19;13.00;52.20
360;DHT22;168;48.872;9.226;2023-04-03T16:31:46;13.40;51.40
360;DHT22;168;48.872;9.226;2023-04-03T16:34:14;13.60;50.20
360;DHT22;168;48.872;9.226;2023-04-03T16:36:42;13.60;50.10
360;DHT22;168;48.872;9.226;2023-04-03T16:39:09;13.30;50.50
360;DHT22;168;48.872;9.226;2023-04-03T16:41:37;13.00;51.00
360;DHT22;168;48.872;9.226;2023-04-03T16:44:08;12.50;52.20
360;DHT22;168;48.872;9.226;2023-04-03T16:46:36;12.10;53.60
360;DHT22;168;48.872;9.226;2023-04-03T16:49:04;11.90;54.30
360;DHT22;168;48.872;9.226;2023-04-03T16:51:33;11.70;54.80
360;DHT22;168;48.872;9.226;2023-04-03T16:54:01;11.50;55.40
360;DHT22;168;48.872;9.226;2023-04-03T16:56:29;11.30;55.50
360;DHT22;168;48.872;9.226;2023-04-03T16:58:56;11.20;55.90
360;DHT22;168;48.872;9.226;2023-04-03T17:01:31;11.10;55.20
360;DHT22;168;48.872;9.226;2023-04-03T17:04:09;11.00;55.40
360;DHT22;168;48.872;9.226;2023-04-03T17:06:37;10.90;55.70
360;DHT22;168;48.872;9.226;2023-04-03T17:09:08;10.80;55.80
360;DHT22;168;48.872;9.226;2023-04-03T17:11:38;10.70;55.80
360;DHT22;168;48.872;9.226;2023-04-03T17:14:06;10.50;55.80
360;DHT22;168;48.872;9.226;2023-04-03T17:16:37;10.20;56.50
360;DHT22;168;48.872;9.226;2023-04-03T17:19:05;9.90;56.80